Time;durP1;ratioP1;P1;durP2;ratioP2;P2;SDS_P1;SDS_P2;PMS_P1;PMS_P2;Temp;Humidity;BMP_temperature;BMP_pressure;BME280_temperature;BME280_humidity;BME280_pressure;Samples;Min_cycle;Max_cycle;Signal;HPM_P1;HPM_P2
2023/12/14 05:04:12;;;;;;;10.00;5.57;;;;;;;;;;7608745;19;20390;-75
2023/12/14 05:06:45;;;;;;;7.07;3.53;;;;;;;;;;7584545;19;20048;-73
2023/12/14 05:09:18;;;;;;;5.97;3.30;;;;;;;;;;7616534;19;20301;-73
2023/12/14 05:11:51;;;;;;;5.78;3.55;;;;;;;;;;7613851;19;20019;-74
2023/12/14 05:14:24;;;;;;;4.70;2.90;;;;;;;;;;7598070;19;20019;-74
2023/12/14 05:16:57;;;;;;;6.70;3.55;;;;;;;;;;7615300;19;20021;-73
2023/12/14 05:19:32;;;;;;;6.57;3.83;;;;;;;;;;7614332;19;20022;-73
2023/12/14 05:22:08;;;;;;;8.07;2.92;;;;;;;;;;7607580;19;20026;-76
2023/12/14 05:24:41;;;;;;;4.67;3.00;;;;;;;;;;7599421;19;20630;-73
2023/12/14 05:27:14;;;;;;;8.77;2.50;;;;;;;;;;7606334;19;20025;-73
2023/12/14 05:29:47;;;;;;;2.92;2.47;;;;;;;;;;7606769;19;21565;-76
2023/12/14 05:32:19;;;;;;;4.32;2.00;;;;;;;;;;7616615;19;20018;-76
2023/12/14 05:34:52;;;;;;;7.25;2.30;;;;;;;;;;7614591;19;20525;-73
2023/12/14 05:37:25;;;;;;;4.00;2.20;;;;;;;;;;7613877;19;20038;-75
2023/12/14 05:39:58;;;;;;;3.67;2.17;;;;;;;;;;7610876;19;20056;-73
2023/12/14 05:42:31;;;;;;;4.03;2.83;;;;;;;;;;7604086;19;20299;-74
2023/12/14 05:45:05;;;;;;;3.33;2.08;;;4.60;99.90;;;;;;7619167;19;20029;-74
2023/12/14 05:47:42;;;;;;;2.67;1.90;;;5.00;99.90;;;;;;7608744;19;20018;-75
2023/12/14 05:50:14;;;;;;;4.30;2.03;;;5.00;99.90;;;;;;7624474;19;20014;-74
2023/12/14 05:52:47;;;;;;;3.60;2.03;;;4.90;99.90;;;;;;7618914;19;20143;-75
2023/12/14 05:55:21;;;;;;;5.80;2.45;;;5.00;99.90;;;;;;7611897;19;20014;-74
2023/12/14 05:57:56;;;;;;;3.92;2.30;;;4.90;99.90;;;;;;7608901;19;20031;-74
2023/12/14 06:00:29;;;;;;;3.45;2.05;;;4.90;99.90;;;;;;7595405;19;20060;-74
2023/12/14 06:03:02;;;;;;;4.68;2.30;;;4.90;99.90;;;;;;7578526;19;20025;-74
2023/12/14 06:05:34;;;;;;;;;;;4.90;99.90;;;;;;7590292;19;22304;-75
2023/12/14 06:08:07;;;;;;;8.73;3.50;;;4.90;99.90;;;;;;7584387;19;20238;-74
2023/12/14 06:10:40;;;;;;;5.45;3.53;;;4.90;99.90;;;;;;7588309;19;20071;-74
2023/12/14 06:13:12;;;;;;;8.17;4.13;;;4.90;99.90;;;;;;7601203;19;20029;-74
2023/12/14 06:15:44;;;;;;;9.63;4.10;;;4.90;99.90;;;;;;7570661;19;20014;-74
2023/12/14 06:18:16;;;;;;;12.95;7.32;;;4.90;99.90;;;;;;7569584;19;20015;-74
2023/12/14 06:20:49;;;;;;;10.65;4.78;;;4.90;99.90;;;;;;7547844;19;20057;-74
2023/12/14 06:23:21;;;;;;;10.52;4.57;;;5.00;99.90;;;;;;7570551;19;20055;-74
2023/12/14 06:25:55;;;;;;;9.98;4.53;;;;;;;;;;7549214;19;20029;-74
2023/12/14 06:28:28;;;;;;;11.73;5.30;;;;;;;;;;7565977;19;20033;-74
2023/12/14 06:31:01;;;;;;;11.23;4.60;;;;;;;;;;7573198;19;20275;-74
2023/12/14 06:33:34;;;;;;;11.18;4.78;;;;;;;;;;7576087;19;20025;-74
2023/12/14 06:36:08;;;;;;;13.20;5.07;;;;;;;;;;7554811;19;21563;-73
2023/12/14 06:38:41;;;;;;;18.33;6.03;;;5.00;99.90;;;;;;7560904;19;20980;-74
2023/12/14 06:41:23;;;;;;;20.00;6.28;;;5.10;99.90;;;;;;7596516;19;20525;-74
2023/12/14 06:43:56;;;;;;;13.33;5.87;;;5.00;99.90;;;;;;7580999;19;20118;-74
2023/12/14 06:46:28;;;;;;;13.63;6.43;;;;;;;;;;7594682;19;20645;-74
2023/12/14 06:49:01;;;;;;;13.88;5.88;;;5.00;99.90;;;;;;7589839;19;20044;-75
2023/12/14 06:51:33;;;;;;;12.88;5.32;;;;;;;;;;7578468;19;20680;-74
2023/12/14 06:54:06;;;;;;;16.73;6.87;;;;;;;;;;7580932;19;20022;-75
2023/12/14 06:56:39;;;;;;;17.70;6.78;;;;;;;;;;7586657;19;20018;-74
2023/12/14 06:59:11;;;;;;;15.83;7.80;;;;;;;;;;7603687;19;20102;-75
2023/12/14 07:01:44;;;;;;;13.90;6.47;;;;;;;;;;7572157;19;20026;-75
2023/12/14 07:04:19;;;;;;;17.13;6.43;;;;;;;;;;7585836;19;20018;-75
2023/12/14 07:06:52;;;;;;;12.77;5.88;;;;;;;;;;7583368;19;20025;-75
2023/12/14 07:09:25;;;;;;;;;;;5.00;99.90;;;;;;7592753;19;20056;-74
2023/12/14 07:11:58;;;;;;;13.10;5.70;;;5.00;99.90;;;;;;7572064;19;19931;-73
2023/12/14 07:14:30;;;;;;;10.95;5.75;;;5.00;99.90;;;;;;7585554;19;20029;-73
2023/12/14 07:17:03;;;;;;;15.02;6.10;;;5.00;99.90;;;;;;7584437;19;20025;-74
2023/12/14 07:19:35;;;;;;;13.43;6.40;;;5.00;99.90;;;;;;7591597;19;20025;-74
2023/12/14 07:22:08;;;;;;;12.67;6.80;;;5.00;99.90;;;;;;7582339;19;20018;-74
2023/12/14 07:24:40;;;;;;;21.38;7.03;;;;;;;;;;7579997;19;20815;-74
2023/12/14 07:27:24;;;;;;;13.02;6.75;;;;;;;;;;7581376;19;20044;-74
2023/12/14 07:29:57;;;;;;;12.70;6.73;;;;;;;;;;7581867;19;20019;-74
2023/12/14 07:32:30;;;;;;;16.65;7.82;;;;;;;;;;7559689;19;20366;-74
2023/12/14 07:35:03;;;;;;;14.60;7.83;;;;;;;;;;7574407;19;20014;-74
2023/12/14 07:37:35;;;;;;;23.08;8.90;;;;;;;;;;7565664;19;20017;-74
2023/12/14 07:40:09;;;;;;;16.15;7.03;;;;;;;;;;7581917;19;20042;-74
2023/12/14 07:42:42;;;;;;;20.23;9.38;;;;;;;;;;7566410;19;20140;-74
2023/12/14 07:45:15;;;;;;;14.23;8.15;;;;;;;;;;7571692;19;20021;-74
2023/12/14 07:47:48;;;;;;;13.27;8.23;;;;;;;;;;7570045;19;20025;-74
2023/12/14 07:50:20;;;;;;;16.75;8.73;;;;;;;;;;7589744;19;20392;-74
2023/12/14 07:52:56;;;;;;;18.75;8.88;;;;;;;;;;7576482;19;20498;-74
2023/12/14 07:55:29;;;;;;;15.93;9.02;;;;;;;;;;7581262;19;20053;-74
2023/12/14 07:58:02;;;;;;;20.00;9.45;;;;;;;;;;7577676;19;20334;-73
2023/12/14 08:00:37;;;;;;;22.63;10.57;;;;;;;;;;7589761;19;20512;-73
2023/12/14 08:03:10;;;;;;;20.70;9.45;;;;;;;;;;7585105;19;20085;-73
2023/12/14 08:05:43;;;;;;;17.20;9.53;;;;;;;;;;7588353;19;20026;-73
2023/12/14 08:08:16;;;;;;;12.97;7.27;;;;;;;;;;7601642;19;20010;-76
2023/12/14 08:10:49;;;;;;;19.02;9.95;;;;;;;;;;7606031;19;20316;-75
2023/12/14 08:13:22;;;;;;;15.40;8.37;;;;;;;;;;7593671;19;20402;-75
2023/12/14 08:15:55;;;;;;;22.20;9.60;;;;;;;;;;7581890;19;20021;-76
2023/12/14 08:18:27;;;;;;;15.68;8.48;;;;;;;;;;7566095;19;21187;-74
2023/12/14 08:21:01;;;;;;;18.83;9.55;;;;;;;;;;7567836;19;20006;-74
2023/12/14 08:23:34;;;;;;;16.75;8.93;;;;;;;;;;7565112;19;20060;-74
2023/12/14 08:26:08;;;;;;;20.73;9.40;;;;;;;;;;7558936;19;20018;-74
2023/12/14 08:28:41;;;;;;;19.08;9.85;;;;;;;;;;7558118;19;20044;-75
2023/12/14 08:31:14;;;;;;;17.13;10.43;;;;;;;;;;7582960;19;20024;-76
2023/12/14 08:33:46;;;;;;;24.38;10.75;;;;;;;;;;7575907;19;21045;-75
2023/12/14 08:36:22;;;;;;;15.20;8.73;;;;;;;;;;7579571;19;20061;-75
2023/12/14 08:38:56;;;;;;;16.00;8.77;;;;;;;;;;7559015;19;20018;-75
2023/12/14 08:41:29;;;;;;;19.97;8.27;;;;;;;;;;7587721;19;20029;-75
2023/12/14 08:44:02;;;;;;;14.40;7.05;;;;;;;;;;7554909;19;20056;-75
2023/12/14 08:46:45;;;;;;;19.42;9.43;;;;;;;;;;7578041;19;20802;-75
2023/12/14 08:49:18;;;;;;;13.32;7.80;;;;;;;;;;7578389;19;20048;-75
2023/12/14 08:51:51;;;;;;;16.20;8.30;;;;;;;;;;7579443;19;20026;-75
2023/12/14 08:54:24;;;;;;;14.07;7.40;;;;;;;;;;7587454;19;20633;-75
2023/12/14 08:56:57;;;;;;;16.17;7.82;;;;;;;;;;7571927;19;21177;-75
2023/12/14 08:59:30;;;;;;;13.27;7.20;;;;;;;;;;7591668;19;20130;-75
2023/12/14 09:02:02;;;;;;;13.93;7.43;;;;;;;;;;7577369;19;20025;-76
2023/12/14 09:04:35;;;;;;;16.77;8.15;;;;;;;;;;7575410;19;20839;-75
2023/12/14 09:07:08;;;;;;;15.77;8.23;;;;;;;;;;7579206;19;20018;-75
2023/12/14 09:09:41;;;;;;;18.17;7.50;;;;;;;;;;7574104;19;20082;-75
2023/12/14 09:12:14;;;;;;;18.17;7.43;;;;;;;;;;7584650;19;20019;-75
2023/12/14 09:14:47;;;;;;;13.65;7.30;;;;;;;;;;7590020;19;20279;-75
2023/12/14 09:17:19;;;;;;;15.82;8.25;;;;;;;;;;7589755;19;20022;-75
2023/12/14 09:19:52;;;;;;;15.52;8.13;;;;;;;;;;7576483;19;20011;-73
2023/12/14 09:22:26;;;;;;;11.55;7.20;;;;;;;;;;7583422;19;20106;-73
2023/12/14 09:24:58;;;;;;;14.27;7.65;;;;;;;;;;7566705;19;20044;-76
2023/12/14 09:27:31;;;;;;;15.67;7.67;;;;;;;;;;7550672;19;20138;-76
2023/12/14 09:30:04;;;;;;;12.38;6.80;;;;;;;;;;7559211;19;20018;-74
2023/12/14 09:32:39;;;;;;;13.80;7.43;;;;;;;;;;7578691;19;20038;-75
2023/12/14 09:35:12;;;;;;;11.35;7.20;;;;;;;;;;7573094;19;21129;-73
2023/12/14 09:37:45;;;;;;;11.97;7.40;;;;;;;;;;7589219;19;20014;-74
2023/12/14 09:40:19;;;;;;;14.35;7.68;;;;;;;;;;7584953;19;20368;-73
2023/12/14 09:42:51;;;;;;;11.50;6.85;;;;;;;;;;7585219;19;20052;-73
2023/12/14 09:45:27;;;;;;;12.77;7.53;;;;;;;;;;7590078;19;20121;-73
2023/12/14 09:48:00;;;;;;;11.73;6.45;;;;;;;;;;7574474;19;20019;-73
2023/12/14 09:50:34;;;;;;;9.68;6.32;;;;;;;;;;7595558;19;20878;-73
2023/12/14 09:53:08;;;;;;;11.15;5.82;;;;;;;;;;7593890;19;20014;-73
2023/12/14 09:55:40;;;;;;;11.55;7.18;;;;;;;;;;7591778;19;20022;-73
2023/12/14 09:58:13;;;;;;;11.67;6.47;;;;;;;;;;7583358;19;20015;-73
2023/12/14 10:00:46;;;;;;;13.10;6.18;;;;;;;;;;7595143;19;20022;-73
2023/12/14 10:03:20;;;;;;;11.00;6.10;;;;;;;;;;7589143;19;20021;-74
2023/12/14 10:05:54;;;;;;;11.60;5.90;;;;;;;;;;7584795;19;20426;-73
2023/12/14 10:08:28;;;;;;;12.50;5.35;;;;;;;;;;7596953;19;20023;-76
2023/12/14 10:11:00;;;;;;;10.02;5.55;;;;;;;;;;7591115;19;20019;-75
2023/12/14 10:13:37;;;;;;;9.55;5.43;;;;;;;;;;7595967;19;20022;-74
2023/12/14 10:16:10;;;;;;;13.88;6.00;;;;;;;;;;7587020;19;20018;-73
2023/12/14 10:18:43;;;;;;;14.80;8.85;;;;;;;;;;7601777;19;20019;-75
2023/12/14 10:21:17;;;;;;;21.30;12.23;;;;;;;;;;7603240;19;20090;-73
2023/12/14 10:23:50;;;;;;;23.73;13.02;;;;;;;;;;7594089;19;20113;-74
2023/12/14 10:26:26;;;;;;;18.27;11.10;;;;;;;;;;7593158;19;20048;-73
2023/12/14 10:28:59;;;;;;;18.50;9.60;;;;;;;;;;7590789;19;20695;-74
2023/12/14 10:31:37;;;;;;;9.77;6.27;;;;;;;;;;7596692;19;20006;-74
2023/12/14 10:34:12;;;;;;;11.90;6.22;;;;;;;;;;7591757;19;20019;-74
2023/12/14 10:36:48;;;;;;;10.23;6.03;;;;;;;;;;7593242;19;20022;-74
2023/12/14 10:39:21;;;;;;;7.90;5.03;;;;;;;;;;7593646;19;20850;-74
2023/12/14 10:41:54;;;;;;;6.53;4.40;;;;;;;;;;7592164;19;20022;-74
2023/12/14 10:44:39;;;;;;;10.27;4.80;;;;;;;;;;7594406;19;20082;-74
2023/12/14 10:47:32;;;;;;;12.23;7.70;;;;;;;;;;7591420;19;20916;-74
2023/12/14 10:50:06;;;;;;;8.07;4.88;;;;;;;;;;7588598;19;20473;-73
2023/12/14 10:52:39;;;;;;;;;;;;;;;;;;7598533;19;20592;-74
2023/12/14 10:55:16;;;;;;;4.78;2.95;;;;;;;;;;7594026;19;19925;-74
2023/12/14 10:57:48;;;;;;;7.43;4.45;;;;;;;;;;7594781;19;20022;-74
2023/12/14 11:00:22;;;;;;;4.47;3.08;;;;;;;;;;7589065;19;20109;-74
2023/12/14 11:02:56;;;;;;;5.93;3.88;;;;;;;;;;7588591;19;20018;-73
2023/12/14 11:05:29;;;;;;;;;;;;;;;;;;7590557;19;20831;-73
2023/12/14 11:08:09;;;;;;;3.95;2.80;;;;;;;;;;7591944;19;20349;-74
2023/12/14 11:10:46;;;;;;;4.75;2.97;;;;;;;;;;7587073;19;20034;-73
2023/12/14 11:13:20;;;;;;;4.65;2.97;;;;;;;;;;7589168;19;21220;-74
2023/12/14 11:15:53;;;;;;;9.00;5.78;;;;;;;;;;7582896;19;20010;-74
2023/12/14 11:18:26;;;;;;;10.23;5.53;;;;;;;;;;7598517;19;20014;-73
2023/12/14 11:21:00;;;;;;;;;;;;;;;;;;7592894;19;20018;-74
2023/12/14 11:23:38;;;;;;;7.75;3.85;;;;;;;;;;7580188;19;20506;-73
2023/12/14 11:26:12;;;;;;;6.25;3.17;;;;;;;;;;7584184;19;20492;-73
2023/12/14 11:28:45;;;;;;;6.68;3.30;;;;;;;;;;7594985;19;20920;-74
2023/12/14 11:31:18;;;;;;;7.78;4.75;;;;;;;;;;7574000;19;21221;-74
2023/12/14 11:33:51;;;;;;;6.10;4.15;;;;;;;;;;7590650;19;20015;-74
2023/12/14 11:36:26;;;;;;;4.88;3.10;;;;;;;;;;7585714;19;20025;-73
2023/12/14 11:38:58;;;;;;;5.10;2.97;;;;;;;;;;7585029;19;20010;-73
2023/12/14 11:41:35;;;;;;;5.43;3.00;;;;;;;;;;7594366;19;20029;-74
2023/12/14 11:44:07;;;;;;;;;;;;;;;;;;7579216;19;20018;-73
2023/12/14 11:46:42;;;;;;;5.55;2.70;;;;;;;;;;7592809;19;19957;-74
2023/12/14 11:49:15;;;;;;;4.75;2.72;;;;;;;;;;7585503;19;20025;-74
2023/12/14 11:51:48;;;;;;;5.20;2.70;;;;;;;;;;7587995;19;20472;-74
2023/12/14 11:54:21;;;;;;;6.87;3.40;;;;;;;;;;7577153;19;20935;-73
2023/12/14 11:56:54;;;;;;;4.65;3.30;;;;;;;;;;7588058;19;20581;-74
2023/12/14 11:59:26;;;;;;;3.63;3.07;;;;;;;;;;7571892;19;20550;-74
2023/12/14 12:02:00;;;;;;;6.60;3.72;;;;;;;;;;7563588;19;20015;-73
2023/12/14 12:04:33;;;;;;;4.57;3.30;;;;;;;;;;7587195;19;21320;-73
2023/12/14 12:07:08;;;;;;;3.50;2.75;;;;;;;;;;7578263;19;20037;-73
2023/12/14 12:09:44;;;;;;;6.07;3.10;;;;;;;;;;7570618;19;20706;-73
2023/12/14 12:12:17;;;;;;;3.92;2.63;;;;;;;;;;7587317;19;20018;-75
2023/12/14 12:14:52;;;;;;;6.75;3.47;;;;;;;;;;7573935;19;20866;-75
2023/12/14 12:17:26;;;;;;;4.13;3.08;;;;;;;;;;7582447;19;20078;-76
2023/12/14 12:19:59;;;;;;;5.45;3.38;;;;;;;;;;7585990;19;20015;-75
2023/12/14 12:22:32;;;;;;;5.00;2.60;;;;;;;;;;7577712;19;20094;-75
2023/12/14 12:25:05;;;;;;;5.73;3.10;;;;;;;;;;7577990;19;20021;-75
2023/12/14 12:27:47;;;;;;;5.70;2.80;;;;;;;;;;7581467;19;20274;-75
2023/12/14 12:30:19;;;;;;;8.82;3.55;;;;;;;;;;7566028;19;20017;-74
2023/12/14 12:32:53;;;;;;;5.70;3.42;;;;;;;;;;7577895;19;20014;-74
2023/12/14 12:35:26;;;;;;;7.10;2.92;;;;;;;;;;7566275;19;20769;-74
2023/12/14 12:37:59;;;;;;;5.63;2.92;;;;;;;;;;7589715;19;22304;-75
2023/12/14 12:40:33;;;;;;;5.63;3.13;;;;;;;;;;7595749;19;20019;-74
2023/12/14 12:43:06;;;;;;;6.45;3.00;;;;;;;;;;7583941;19;20029;-74
2023/12/14 12:45:38;;;;;;;7.77;3.07;;;;;;;;;;7586808;19;20081;-74
2023/12/14 12:48:13;;;;;;;7.85;3.28;;;;;;;;;;7589037;19;20440;-74
2023/12/14 12:50:46;;;;;;;5.63;2.90;;;;;;;;;;7592387;19;20030;-74
2023/12/14 12:53:19;;;;;;;6.73;3.07;;;;;;;;;;7588921;19;20057;-74
2023/12/14 12:55:52;;;;;;;5.05;2.78;;;;;;;;;;7580153;19;20282;-74
2023/12/14 12:58:24;;;;;;;6.68;2.78;;;;;;;;;;7573659;19;21331;-74
2023/12/14 13:00:57;;;;;;;6.25;3.20;;;;;;;;;;7589114;19;20050;-74
2023/12/14 13:03:30;;;;;;;4.38;2.38;;;;;;;;;;7536944;19;20022;-74
2023/12/14 13:06:03;;;;;;;4.10;2.92;;;;;;;;;;7569140;19;20388;-74
2023/12/14 13:08:36;;;;;;;7.68;2.88;;;;;;;;;;7581678;19;20022;-74
2023/12/14 13:11:09;;;;;;;4.80;2.50;;;;;;;;;;7558942;19;20026;-74
2023/12/14 13:13:43;;;;;;;10.03;2.73;;;;;;;;;;7575376;19;20490;-74
2023/12/14 13:16:16;;;;;;;4.07;2.38;;;;;;;;;;7559360;19;20309;-74
2023/12/14 13:18:50;;;;;;;7.45;2.67;;;;;;;;;;7566484;19;20022;-73
2023/12/14 13:21:23;;;;;;;5.03;3.00;;;;;;;;;;7559629;19;20011;-73
2023/12/14 13:23:57;;;;;;;9.60;2.53;;;;;;;;;;7551576;19;21497;-73
2023/12/14 13:26:30;;;;;;;3.78;2.50;;;;;;;;;;7562894;19;20018;-74
2023/12/14 13:29:03;;;;;;;3.93;2.30;;;;;;;;;;7552274;19;20026;-74
2023/12/14 13:31:35;;;;;;;4.50;2.37;;;;;;;;;;7533001;19;20010;-74
2023/12/14 13:34:08;;;;;;;6.47;2.50;;;;;;;;;;7565754;19;20026;-74
2023/12/14 13:36:41;;;;;;;4.25;2.03;;;;;;;;;;7572555;19;20469;-73
2023/12/14 13:39:14;;;;;;;3.85;2.45;;;;;;;;;;7571904;19;20011;-76
2023/12/14 13:41:47;;;;;;;4.57;2.00;;;;;;;;;;7558891;19;20148;-76
2023/12/14 13:44:22;;;;;;;3.50;1.92;;;5.00;99.90;;;;;;7559909;19;20022;-74
2023/12/14 13:46:54;;;;;;;4.00;2.25;;;;;;;;;;7567933;19;20034;-75
2023/12/14 13:49:27;;;;;;;3.38;1.85;;;;;;;;;;7541433;19;20014;-76
2023/12/14 13:52:00;;;;;;;3.30;2.53;;;;;;;;;;7567409;19;20018;-74
2023/12/14 13:54:33;;;;;;;6.45;2.58;;;;;;;;;;7547470;19;21563;-74
2023/12/14 13:57:06;;;;;;;3.92;2.03;;;;;;;;;;7575085;19;20048;-76
2023/12/14 13:59:38;;;;;;;7.53;2.73;;;;;;;;;;7573202;19;20018;-74
2023/12/14 14:02:11;;;;;;;3.38;2.17;;;;;;;;;;7552970;19;20006;-76
2023/12/14 14:04:44;;;;;;;4.20;2.50;;;;;;;;;;7557397;19;20015;-74
2023/12/14 14:07:21;;;;;;;4.55;2.55;;;;;;;;;;7550816;19;20049;-74
2023/12/14 14:09:54;;;;;;;3.17;2.30;;;;;;;;;;7558877;19;20038;-78
2023/12/14 14:12:26;;;;;;;5.27;2.50;;;;;;;;;;7561567;19;21530;-74
2023/12/14 14:14:59;;;;;;;3.67;1.83;;;;;;;;;;7558275;19;20017;-75
2023/12/14 14:17:32;;;;;;;3.90;2.05;;;;;;;;;;7570712;19;20014;-75
2023/12/14 14:20:06;;;;;;;4.13;3.00;;;;;;;;;;7577259;19;20018;-75
2023/12/14 14:22:39;;;;;;;4.63;2.90;;;;;;;;;;7560682;19;21029;-75
2023/12/14 14:25:12;;;;;;;4.38;3.17;;;;;;;;;;7559883;19;22076;-76
2023/12/14 14:27:46;;;;;;;2.80;2.15;;;;;;;;;;7566554;19;20014;-76
2023/12/14 14:30:19;;;;;;;4.93;2.40;;;;;;;;;;7562339;19;20032;-75
2023/12/14 14:32:52;;;;;;;4.50;2.80;;;;;;;;;;7566984;19;20022;-74
2023/12/14 14:35:25;;;;;;;3.60;2.72;;;;;;;;;;7572914;19;21189;-74
2023/12/14 14:37:59;;;;;;;7.73;4.80;;;;;;;;;;7592877;19;20018;-74
2023/12/14 14:40:32;;;;;;;12.38;6.40;;;;;;;;;;7571216;19;20275;-78
2023/12/14 14:43:04;;;;;;;8.05;5.20;;;;;;;;;;7572465;19;20006;-75
2023/12/14 14:45:37;;;;;;;6.32;3.92;;;;;;;;;;7569843;19;20017;-76
2023/12/14 14:48:10;;;;;;;6.07;4.32;;;;;;;;;;7582266;19;20378;-75
2023/12/14 14:50:43;;;;;;;7.17;3.73;;;;;;;;;;7576378;19;20014;-76
2023/12/14 14:53:16;;;;;;;6.55;4.22;;;;;;;;;;7572648;19;20015;-75
2023/12/14 14:55:55;;;;;;;6.43;3.40;;;;;;;;;;7584283;19;20061;-75
2023/12/14 14:58:28;;;;;;;5.10;3.50;;;;;;;;;;7566307;19;20019;-74
2023/12/14 15:01:01;;;;;;;4.03;3.25;;;;;;;;;;7558561;19;20145;-76
2023/12/14 15:03:34;;;;;;;6.33;4.50;;;;;;;;;;7574060;19;20406;-75
2023/12/14 15:06:07;;;;;;;6.28;3.63;;;;;;;;;;7571625;19;20017;-74
2023/12/14 15:08:39;;;;;;;6.20;3.70;;;;;;;;;;7559323;19;20391;-74
2023/12/14 15:11:12;;;;;;;9.20;3.40;;;;;;;;;;7569914;19;20103;-74
2023/12/14 15:13:45;;;;;;;5.63;3.50;;;;;;;;;;7561648;19;20010;-73
2023/12/14 15:16:18;;;;;;;8.50;4.32;;;;;;;;;;7573998;19;20086;-75
2023/12/14 15:18:51;;;;;;;9.05;4.20;;;;;;;;;;7560035;19;20015;-75
2023/12/14 15:21:24;;;;;;;6.18;4.22;;;;;;;;;;7576679;19;20939;-74
2023/12/14 15:23:57;;;;;;;7.70;4.63;;;;;;;;;;7569925;19;20595;-74
2023/12/14 15:26:31;;;;;;;8.70;5.20;;;;;;;;;;7561935;19;20061;-73
2023/12/14 15:29:04;;;;;;;10.40;4.95;;;;;;;;;;7569904;19;20015;-72
2023/12/14 15:31:37;;;;;;;8.65;5.15;;;;;;;;;;7567641;19;20018;-72
2023/12/14 15:34:10;;;;;;;7.10;4.50;;;;;;;;;;7569509;19;20014;-72
2023/12/14 15:36:43;;;;;;;14.15;8.02;;;;;;;;;;7579676;19;20029;-75
2023/12/14 15:39:16;;;;;;;13.30;7.57;;;;;;;;;;7568337;19;20166;-75
2023/12/14 15:41:48;;;;;;;14.47;7.37;;;;;;;;;;7566022;19;20033;-75
2023/12/14 15:44:21;;;;;;;16.70;9.23;;;;;;;;;;7579610;19;20022;-74
2023/12/14 15:46:54;;;;;;;13.97;7.67;;;;;;;;;;7566216;19;20029;-74
2023/12/14 15:49:27;;;;;;;10.68;6.43;;;;;;;;;;7559233;19;20636;-74
2023/12/14 15:52:00;;;;;;;11.63;7.10;;;;;;;;;;7531370;19;20548;-75
2023/12/14 15:54:33;;;;;;;11.43;7.67;;;;;;;;;;7562651;19;20014;-72
2023/12/14 15:57:05;;;;;;;14.37;10.77;;;;;;;;;;7574271;19;20084;-75
2023/12/14 15:59:38;;;;;;;16.07;9.47;;;;;;;;;;7548424;19;20057;-72
2023/12/14 16:02:11;;;;;;;11.70;7.50;;;;;;;;;;7577745;19;20048;-74
2023/12/14 16:04:44;;;;;;;13.90;7.43;;;;;;;;;;7549392;19;20015;-72
2023/12/14 16:07:17;;;;;;;9.63;6.32;;;;;;;;;;7572323;19;20021;-73
2023/12/14 16:09:50;;;;;;;10.77;6.37;;;;;;;;;;7553137;19;20015;-74
2023/12/14 16:12:23;;;;;;;9.40;5.88;;;;;;;;;;7548097;19;20322;-75
2023/12/14 16:14:56;;;;;;;14.45;7.85;;;;;;;;;;7565606;19;20050;-74
2023/12/14 16:17:29;;;;;;;12.98;6.90;;;;;;;;;;7569755;19;20018;-73
2023/12/14 16:20:04;;;;;;;14.27;7.65;;;;;;;;;;7566065;19;20329;-75
2023/12/14 16:22:37;;;;;;;10.75;6.65;;;;;;;;;;7557302;19;20026;-75
2023/12/14 16:25:11;;;;;;;13.50;6.95;;;;;;;;;;7558156;19;20015;-75
2023/12/14 16:27:46;;;;;;;13.00;7.50;;;;;;;;;;7548381;19;20018;-73
2023/12/14 16:30:18;;;;;;;11.63;6.50;;;7.30;99.90;;;;;;7567343;19;20077;-72
2023/12/14 16:32:50;;;;;;;10.95;7.22;;;6.10;99.90;;;;;;7578569;19;21266;-75
2023/12/14 16:35:23;;;;;;;11.65;7.80;;;6.00;99.90;;;;;;7575085;19;20531;-73
2023/12/14 16:37:57;;;;;;;13.50;7.70;;;6.00;99.90;;;;;;7565402;19;20028;-75
2023/12/14 16:40:29;;;;;;;9.90;6.45;;;6.00;99.90;;;;;;7574638;19;20018;-75
2023/12/14 16:43:01;;;;;;;11.95;7.90;;;6.10;99.90;;;;;;7573014;19;20051;-75
2023/12/14 16:45:33;;;;;;;10.55;6.47;;;6.00;99.90;;;;;;7562818;19;21346;-72
2023/12/14 16:48:06;;;;;;;14.02;7.75;;;6.00;99.90;;;;;;7573296;19;20020;-75
2023/12/14 16:50:38;;;;;;;14.40;7.45;;;6.00;99.90;;;;;;7567695;19;20018;-74
2023/12/14 16:53:10;;;;;;;15.68;8.00;;;6.00;99.90;;;;;;7580503;19;20078;-75
2023/12/14 16:55:43;;;;;;;11.45;7.93;;;6.00;99.90;;;;;;7545959;19;20060;-74
2023/12/14 16:58:17;;;;;;;14.40;8.70;;;6.00;99.90;;;;;;7562474;19;20014;-74
2023/12/14 17:01:10;;;;;;;;;;;5.90;99.90;;;;;;7562895;19;20501;-73
2023/12/14 17:03:45;;;;;;;11.77;7.00;;;5.90;99.90;;;;;;7542197;19;19930;-75
2023/12/14 17:06:19;;;;;;;18.10;7.55;;;5.80;99.90;;;;;;7536876;19;20015;-74
2023/12/14 17:08:53;;;;;;;10.85;7.47;;;5.90;99.90;;;;;;7569111;19;20025;-75
2023/12/14 17:11:25;;;;;;;12.25;7.18;;;5.80;99.90;;;;;;7573800;19;20878;-73
2023/12/14 17:14:01;;;;;;;25.30;14.30;;;;;;;;;;7557672;19;20037;-73
2023/12/14 17:16:33;;;;;;;16.08;9.48;;;;;;;;;;7551196;19;20023;-75
2023/12/14 17:19:06;;;;;;;11.82;7.30;;;;;;;;;;7561240;19;21858;-73
2023/12/14 17:21:41;;;;;;;13.97;7.10;;;;;;;;;;7555390;19;21534;-74
2023/12/14 17:24:14;;;;;;;12.57;7.50;;;;;;;;;;7563860;19;20015;-74
2023/12/14 17:26:47;;;;;;;10.55;6.53;;;;;;;;;;7560581;19;20014;-74
2023/12/14 17:29:20;;;;;;;11.52;6.80;;;;;;;;;;7549621;19;20035;-74
2023/12/14 17:31:54;;;;;;;9.07;5.32;;;;;;;;;;7557018;19;20125;-74
2023/12/14 17:34:27;;;;;;;14.30;6.70;;;;;;;;;;7569556;19;20014;-74
2023/12/14 17:37:00;;;;;;;12.03;5.73;;;;;;;;;;7568957;19;20703;-74
2023/12/14 17:39:33;;;;;;;9.77;5.95;;;;;;;;;;7569922;19;20029;-75
2023/12/14 17:42:06;;;;;;;8.23;5.43;;;;;;;;;;7570690;19;20018;-75
2023/12/14 17:44:51;;;;;;;13.82;6.40;;;;;;;;;;7561556;19;20030;-72
2023/12/14 17:47:24;;;;;;;8.27;5.30;;;;;;;;;;7549166;19;20048;-72
2023/12/14 17:49:57;;;;;;;6.25;4.50;;;;;;;;;;7572647;19;20275;-72
2023/12/14 17:52:30;;;;;;;6.07;4.70;;;;;;;;;;7575990;19;20014;-72
2023/12/14 17:55:02;;;;;;;7.80;4.78;;;;;;;;;;7565103;19;20060;-74
2023/12/14 17:57:36;;;;;;;8.57;4.72;;;;;;;;;;7567603;19;20018;-74
2023/12/14 18:00:10;;;;;;;8.30;5.10;;;5.80;99.90;;;;;;7566649;19;20862;-72
2023/12/14 18:02:42;;;;;;;11.18;6.40;;;5.80;99.90;;;;;;7566397;19;20098;-74
2023/12/14 18:05:15;;;;;;;12.60;5.35;;;5.80;99.90;;;;;;7549173;19;20018;-75
2023/12/14 18:07:49;;;;;;;8.57;5.63;;;5.90;99.90;;;;;;7576380;19;20022;-73
2023/12/14 18:10:21;;;;;;;10.43;5.20;;;5.80;99.90;;;;;;7568651;19;20026;-72
2023/12/14 18:12:56;;;;;;;8.70;4.45;;;5.80;99.90;;;;;;7573022;19;20064;-75
2023/12/14 18:15:29;;;;;;;8.63;5.43;;;5.80;99.90;;;;;;7555932;19;20877;-75
2023/12/14 18:18:02;;;;;;;10.80;5.28;;;5.60;99.90;;;;;;7551298;19;20719;-72
2023/12/14 18:20:34;;;;;;;10.93;4.78;;;5.80;99.90;;;;;;7561964;19;20026;-72
2023/12/14 18:23:07;;;;;;;7.53;4.85;;;5.80;99.90;;;;;;7576549;19;20037;-72
2023/12/14 18:25:39;;;;;;;7.97;4.90;;;5.80;99.90;;;;;;7581737;19;20015;-75
2023/12/14 18:28:13;;;;;;;8.52;5.15;;;5.70;99.90;;;;;;7584680;19;20025;-74
2023/12/14 18:30:45;;;;;;;11.35;5.30;;;5.70;99.90;;;;;;7574640;19;20040;-74
2023/12/14 18:33:18;;;;;;;9.65;5.45;;;5.70;99.90;;;;;;7595741;19;20015;-75
2023/12/14 18:35:50;;;;;;;7.43;5.20;;;5.70;99.90;;;;;;7583951;19;20015;-73
2023/12/14 18:38:23;;;;;;;10.40;5.80;;;5.60;99.90;;;;;;7580633;19;20048;-73
2023/12/14 18:40:55;;;;;;;8.90;6.60;;;5.70;99.90;;;;;;7581614;19;20365;-73
2023/12/14 18:43:28;;;;;;;11.05;6.70;;;5.70;99.90;;;;;;7590900;19;20662;-72
2023/12/14 18:46:00;;;;;;;9.48;6.22;;;5.70;99.90;;;;;;7561346;19;20014;-73
2023/12/14 18:48:35;;;;;;;11.43;6.72;;;5.70;99.90;;;;;;7537626;19;20019;-73
2023/12/14 18:51:09;;;;;;;14.27;6.93;;;5.70;99.90;;;;;;7567035;19;20010;-73
2023/12/14 18:53:41;;;;;;;;;;;5.70;99.90;;;;;;7571059;19;20908;-73
2023/12/14 18:56:13;;;;;;;11.65;6.45;;;5.60;99.90;;;;;;7561508;19;19934;-73
2023/12/14 18:58:45;;;;;;;9.98;5.50;;;5.60;99.90;;;;;;7560442;19;20258;-73
2023/12/14 19:01:18;;;;;;;9.50;5.88;;;5.60;99.90;;;;;;7541438;19;20014;-74
2023/12/14 19:03:51;;;;;;;7.55;4.93;;;;;;;;;;7564668;19;20022;-73
2023/12/14 19:06:23;;;;;;;8.77;5.30;;;5.50;99.90;;;;;;7579603;19;20536;-75
2023/12/14 19:08:56;;;;;;;10.70;6.57;;;5.40;99.90;;;;;;7565361;19;20033;-74
2023/12/14 19:11:29;;;;;;;8.98;6.25;;;5.30;99.90;;;;;;7543803;19;20011;-74
2023/12/14 19:14:02;;;;;;;9.52;5.90;;;5.30;99.90;;;;;;7571467;19;20128;-74
2023/12/14 19:16:35;;;;;;;9.00;6.10;;;5.30;99.90;;;;;;7561877;19;20022;-74
2023/12/14 19:19:07;;;;;;;11.80;6.07;;;5.20;99.90;;;;;;7564607;19;20531;-76
2023/12/14 19:21:41;;;;;;;14.63;6.47;;;;;;;;;;7571954;19;20018;-74
2023/12/14 19:24:14;;;;;;;11.02;6.18;;;;;;;;;;7559086;19;20690;-75
2023/12/14 19:26:46;;;;;;;14.18;7.45;;;;;;;;;;7580608;19;20023;-74
2023/12/14 19:29:20;;;;;;;15.20;7.43;;;;;;;;;;7565143;19;20010;-73
2023/12/14 19:31:55;;;;;;;15.57;7.70;;;;;;;;;;7558027;19;20006;-74
2023/12/14 19:34:28;;;;;;;13.13;7.10;;;;;;;;;;7579113;19;20029;-76
2023/12/14 19:37:01;;;;;;;13.47;7.73;;;;;;;;;;7574452;19;20076;-74
2023/12/14 19:39:34;;;;;;;16.90;8.48;;;;;;;;;;7562839;19;20014;-74
2023/12/14 19:42:06;;;;;;;10.98;6.35;;;;;;;;;;7561029;19;20015;-74
2023/12/14 19:44:39;;;;;;;10.45;6.63;;;;;;;;;;7559060;19;20965;-74
2023/12/14 19:47:12;;;;;;;15.38;8.48;;;;;;;;;;7558283;19;20025;-74
2023/12/14 19:49:45;;;;;;;14.63;8.88;;;;;;;;;;7575069;19;20017;-73
2023/12/14 19:52:18;;;;;;;16.42;9.10;;;;;;;;;;7565996;19;20471;-74